sensor_id;sensor_type;location;lat;lon;timestamp;P1;durP1;ratioP1;P2;durP2;ratioP2
28605;SDS011;46498;49.968;7.754;2022-09-13T00:04:14;4.05;;;2.20;;
28605;SDS011;46498;49.968;7.754;2022-09-13T00:09:15;3.25;;;2.15;;
28605;SDS011;46498;49.968;7.754;2022-09-13T00:14:15;5.68;;;2.42;;
28605;SDS011;46498;49.968;7.754;2022-09-13T00:19:16;2.30;;;2.10;;
28605;SDS011;46498;49.968;7.754;2022-09-13T00:24:17;4.95;;;2.45;;
28605;SDS011;46498;49.968;7.754;2022-09-13T00:29:18;3.12;;;2.12;;
28605;SDS011;46498;49.968;7.754;2022-09-13T00:34:19;3.62;;;2.50;;
28605;SDS011;46498;49.968;7.754;2022-09-13T00:39:21;2.22;;;1.87;;
28605;SDS011;46498;49.968;7.754;2022-09-13T00:50:10;3.00;;;1.98;;
28605;SDS011;46498;49.968;7.754;2022-09-13T00:55:20;3.20;;;2.30;;
28605;SDS011;46498;49.968;7.754;2022-09-13T01:00:34;5.37;;;1.95;;
28605;SDS011;46498;49.968;7.754;2022-09-13T01:05:37;3.33;;;2.17;;
28605;SDS011;46498;49.968;7.754;2022-09-13T01:10:45;3.05;;;2.05;;
28605;SDS011;46498;49.968;7.754;2022-09-13T01:15:48;3.17;;;2.12;;
28605;SDS011;46498;49.968;7.754;2022-09-13T01:30:58;2.92;;;1.90;;
28605;SDS011;46498;49.968;7.754;2022-09-13T01:43:16;9.10;;;2.55;;
28605;SDS011;46498;49.968;7.754;2022-09-13T01:55:08;2.03;;;1.80;;
28605;SDS011;46498;49.968;7.754;2022-09-13T02:01:46;4.15;;;1.80;;
28605;SDS011;46498;49.968;7.754;2022-09-13T02:07:02;2.70;;;1.92;;
28605;SDS011;46498;49.968;7.754;2022-09-13T02:12:24;4.50;;;2.15;;
28605;SDS011;46498;49.968;7.754;2022-09-13T02:17:27;2.00;;;1.35;;
28605;SDS011;46498;49.968;7.754;2022-09-13T02:22:34;2.05;;;1.50;;
28605;SDS011;46498;49.968;7.754;2022-09-13T02:27:42;2.42;;;1.83;;
28605;SDS011;46498;49.968;7.754;2022-09-13T02:32:58;2.40;;;1.60;;
28605;SDS011;46498;49.968;7.754;2022-09-13T02:38:31;2.87;;;1.48;;
28605;SDS011;46498;49.968;7.754;2022-09-13T02:43:36;1.77;;;1.40;;
28605;SDS011;46498;49.968;7.754;2022-09-13T02:48:48;3.08;;;1.50;;
28605;SDS011;46498;49.968;7.754;2022-09-13T02:54:42;3.62;;;1.65;;
28605;SDS011;46498;49.968;7.754;2022-09-13T02:59:51;6.10;;;1.70;;
28605;SDS011;46498;49.968;7.754;2022-09-13T03:04:52;2.92;;;1.25;;
28605;SDS011;46498;49.968;7.754;2022-09-13T03:09:54;2.75;;;1.48;;
28605;SDS011;46498;49.968;7.754;2022-09-13T03:15:38;2.53;;;1.30;;
28605;SDS011;46498;49.968;7.754;2022-09-13T03:21:07;2.72;;;1.62;;
28605;SDS011;46498;49.968;7.754;2022-09-13T03:26:51;2.45;;;1.40;;
28605;SDS011;46498;49.968;7.754;2022-09-13T03:32:22;6.57;;;1.40;;
28605;SDS011;46498;49.968;7.754;2022-09-13T03:38:46;1.70;;;1.30;;
28605;SDS011;46498;49.968;7.754;2022-09-13T03:44:00;3.87;;;1.60;;
28605;SDS011;46498;49.968;7.754;2022-09-13T03:49:07;4.43;;;1.70;;
28605;SDS011;46498;49.968;7.754;2022-09-13T03:54:19;3.05;;;1.77;;
28605;SDS011;46498;49.968;7.754;2022-09-13T03:59:22;3.00;;;1.30;;
28605;SDS011;46498;49.968;7.754;2022-09-13T04:04:23;3.08;;;1.20;;
28605;SDS011;46498;49.968;7.754;2022-09-13T04:09:26;2.60;;;1.35;;
28605;SDS011;46498;49.968;7.754;2022-09-13T04:14:27;2.33;;;1.37;;
28605;SDS011;46498;49.968;7.754;2022-09-13T04:19:28;2.12;;;1.15;;
28605;SDS011;46498;49.968;7.754;2022-09-13T04:24:29;1.92;;;1.15;;
28605;SDS011;46498;49.968;7.754;2022-09-13T04:29:30;1.75;;;1.30;;
28605;SDS011;46498;49.968;7.754;2022-09-13T04:34:32;4.00;;;1.30;;
28605;SDS011;46498;49.968;7.754;2022-09-13T04:39:32;2.45;;;1.17;;
28605;SDS011;46498;49.968;7.754;2022-09-13T04:44:33;7.10;;;1.52;;
28605;SDS011;46498;49.968;7.754;2022-09-13T04:49:34;3.22;;;1.20;;
28605;SDS011;46498;49.968;7.754;2022-09-13T04:54:35;3.28;;;1.83;;
28605;SDS011;46498;49.968;7.754;2022-09-13T04:59:37;2.78;;;1.52;;
28605;SDS011;46498;49.968;7.754;2022-09-13T05:04:38;3.50;;;1.83;;
28605;SDS011;46498;49.968;7.754;2022-09-13T05:09:39;3.05;;;1.10;;
28605;SDS011;46498;49.968;7.754;2022-09-13T05:14:40;3.70;;;1.27;;
28605;SDS011;46498;49.968;7.754;2022-09-13T05:19:41;3.08;;;1.25;;
28605;SDS011;46498;49.968;7.754;2022-09-13T05:24:42;13.82;;;2.15;;
28605;SDS011;46498;49.968;7.754;2022-09-13T05:29:42;8.35;;;1.50;;
28605;SDS011;46498;49.968;7.754;2022-09-13T05:34:43;8.02;;;1.98;;
28605;SDS011;46498;49.968;7.754;2022-09-13T05:39:44;26.70;;;3.08;;
28605;SDS011;46498;49.968;7.754;2022-09-13T05:45:10;23.98;;;2.92;;
28605;SDS011;46498;49.968;7.754;2022-09-13T05:50:11;33.17;;;3.62;;
28605;SDS011;46498;49.968;7.754;2022-09-13T05:55:33;38.40;;;3.58;;
28605;SDS011;46498;49.968;7.754;2022-09-13T06:00:35;33.83;;;3.28;;
28605;SDS011;46498;49.968;7.754;2022-09-13T06:05:36;18.42;;;3.05;;
28605;SDS011;46498;49.968;7.754;2022-09-13T06:10:37;10.00;;;2.60;;
28605;SDS011;46498;49.968;7.754;2022-09-13T06:15:37;9.13;;;2.20;;
28605;SDS011;46498;49.968;7.754;2022-09-13T06:20:43;9.98;;;2.30;;
28605;SDS011;46498;49.968;7.754;2022-09-13T06:25:44;6.03;;;2.10;;
28605;SDS011;46498;49.968;7.754;2022-09-13T06:30:46;7.25;;;2.20;;
28605;SDS011;46498;49.968;7.754;2022-09-13T06:35:46;17.87;;;2.50;;
28605;SDS011;46498;49.968;7.754;2022-09-13T06:40:47;16.73;;;2.40;;
28605;SDS011;46498;49.968;7.754;2022-09-13T06:45:48;7.45;;;1.90;;
28605;SDS011;46498;49.968;7.754;2022-09-13T06:50:50;21.45;;;3.47;;
28605;SDS011;46498;49.968;7.754;2022-09-13T06:55:58;13.82;;;2.35;;
28605;SDS011;46498;49.968;7.754;2022-09-13T07:01:08;9.65;;;2.08;;
28605;SDS011;46498;49.968;7.754;2022-09-13T07:06:18;62.83;;;4.75;;
28605;SDS011;46498;49.968;7.754;2022-09-13T07:11:24;29.12;;;2.97;;
28605;SDS011;46498;49.968;7.754;2022-09-13T07:16:27;13.18;;;2.42;;
28605;SDS011;46498;49.968;7.754;2022-09-13T07:21:30;15.38;;;2.97;;
28605;SDS011;46498;49.968;7.754;2022-09-13T07:26:32;7.90;;;2.50;;
28605;SDS011;46498;49.968;7.754;2022-09-13T07:31:35;5.95;;;2.25;;
28605;SDS011;46498;49.968;7.754;2022-09-13T07:36:40;6.30;;;2.75;;
28605;SDS011;46498;49.968;7.754;2022-09-13T07:41:41;4.05;;;1.83;;
28605;SDS011;46498;49.968;7.754;2022-09-13T07:46:43;8.88;;;2.72;;
28605;SDS011;46498;49.968;7.754;2022-09-13T07:51:44;6.57;;;2.47;;
28605;SDS011;46498;49.968;7.754;2022-09-13T07:56:45;4.65;;;2.45;;
28605;SDS011;46498;49.968;7.754;2022-09-13T08:01:49;2.95;;;2.33;;
28605;SDS011;46498;49.968;7.754;2022-09-13T08:06:51;5.37;;;2.87;;
28605;SDS011;46498;49.968;7.754;2022-09-13T08:11:52;5.65;;;3.17;;
28605;SDS011;46498;49.968;7.754;2022-09-13T08:16:54;3.50;;;2.80;;
28605;SDS011;46498;49.968;7.754;2022-09-13T08:21:56;5.95;;;3.08;;
28605;SDS011;46498;49.968;7.754;2022-09-13T08:26:57;2.83;;;2.25;;
28605;SDS011;46498;49.968;7.754;2022-09-13T08:31:58;3.00;;;2.35;;
28605;SDS011;46498;49.968;7.754;2022-09-13T08:36:58;3.40;;;2.12;;
28605;SDS011;46498;49.968;7.754;2022-09-13T08:42:03;5.50;;;2.30;;
28605;SDS011;46498;49.968;7.754;2022-09-13T08:59:06;4.12;;;2.70;;
28605;SDS011;46498;49.968;7.754;2022-09-13T09:10:56;5.78;;;2.58;;
28605;SDS011;46498;49.968;7.754;2022-09-13T09:27:52;7.35;;;3.30;;
28605;SDS011;46498;49.968;7.754;2022-09-13T09:41:25;9.77;;;3.37;;
28605;SDS011;46498;49.968;7.754;2022-09-13T09:46:33;7.07;;;4.20;;
28605;SDS011;46498;49.968;7.754;2022-09-13T09:51:40;11.10;;;4.03;;
28605;SDS011;46498;49.968;7.754;2022-09-13T09:56:49;6.85;;;4.70;;
28605;SDS011;46498;49.968;7.754;2022-09-13T10:01:53;5.90;;;4.70;;
28605;SDS011;46498;49.968;7.754;2022-09-13T10:07:07;6.50;;;3.50;;
28605;SDS011;46498;49.968;7.754;2022-09-13T10:12:27;8.63;;;4.30;;
28605;SDS011;46498;49.968;7.754;2022-09-13T10:17:29;6.90;;;3.22;;
28605;SDS011;46498;49.968;7.754;2022-09-13T10:22:31;8.63;;;3.50;;
28605;SDS011;46498;49.968;7.754;2022-09-13T10:27:37;5.87;;;3.50;;
28605;SDS011;46498;49.968;7.754;2022-09-13T10:32:42;6.00;;;2.80;;
28605;SDS011;46498;49.968;7.754;2022-09-13T10:37:54;10.05;;;2.75;;
28605;SDS011;46498;49.968;7.754;2022-09-13T10:42:56;5.00;;;2.55;;
28605;SDS011;46498;49.968;7.754;2022-09-13T10:48:15;5.75;;;3.10;;
28605;SDS011;46498;49.968;7.754;2022-09-13T10:53:29;5.75;;;2.60;;
28605;SDS011;46498;49.968;7.754;2022-09-13T10:58:38;5.32;;;1.80;;
28605;SDS011;46498;49.968;7.754;2022-09-13T11:03:46;3.28;;;1.60;;
28605;SDS011;46498;49.968;7.754;2022-09-13T11:09:15;3.00;;;1.20;;
28605;SDS011;46498;49.968;7.754;2022-09-13T11:22:56;1.87;;;1.10;;
28605;SDS011;46498;49.968;7.754;2022-09-13T11:28:33;3.08;;;1.50;;
28605;SDS011;46498;49.968;7.754;2022-09-13T11:34:03;4.68;;;1.27;;
28605;SDS011;46498;49.968;7.754;2022-09-13T11:54:39;2.85;;;2.00;;
28605;SDS011;46498;49.968;7.754;2022-09-13T11:59:53;3.42;;;2.08;;
28605;SDS011;46498;49.968;7.754;2022-09-13T12:05:03;3.12;;;1.70;;
28605;SDS011;46498;49.968;7.754;2022-09-13T12:10:36;7.72;;;3.70;;
28605;SDS011;46498;49.968;7.754;2022-09-13T12:15:47;5.30;;;3.28;;
28605;SDS011;46498;49.968;7.754;2022-09-13T12:20:53;4.53;;;2.60;;
28605;SDS011;46498;49.968;7.754;2022-09-13T12:26:08;5.97;;;2.45;;
28605;SDS011;46498;49.968;7.754;2022-09-13T12:31:17;4.25;;;2.08;;
28605;SDS011;46498;49.968;7.754;2022-09-13T13:06:23;1.87;;;1.37;;
28605;SDS011;46498;49.968;7.754;2022-09-13T13:11:43;3.87;;;1.20;;
28605;SDS011;46498;49.968;7.754;2022-09-13T13:16:47;1.42;;;1.05;;
28605;SDS011;46498;49.968;7.754;2022-09-13T13:21:49;2.30;;;1.20;;
28605;SDS011;46498;49.968;7.754;2022-09-13T13:26:56;2.65;;;1.48;;
28605;SDS011;46498;49.968;7.754;2022-09-13T13:42:32;2.20;;;1.10;;
28605;SDS011;46498;49.968;7.754;2022-09-13T13:47:49;3.28;;;1.20;;
28605;SDS011;46498;49.968;7.754;2022-09-13T13:52:55;1.98;;;0.90;;
28605;SDS011;46498;49.968;7.754;2022-09-13T13:58:14;2.72;;;1.08;;
28605;SDS011;46498;49.968;7.754;2022-09-13T14:10:19;1.35;;;0.82;;
28605;SDS011;46498;49.968;7.754;2022-09-13T14:15:49;1.08;;;0.82;;
28605;SDS011;46498;49.968;7.754;2022-09-13T14:21:17;1.30;;;1.00;;
28605;SDS011;46498;49.968;7.754;2022-09-13T14:26:23;2.28;;;1.08;;
28605;SDS011;46498;49.968;7.754;2022-09-13T14:31:24;1.75;;;1.00;;
28605;SDS011;46498;49.968;7.754;2022-09-13T14:36:25;1.60;;;0.88;;
28605;SDS011;46498;49.968;7.754;2022-09-13T14:41:35;1.87;;;1.10;;
28605;SDS011;46498;49.968;7.754;2022-09-13T14:46:38;3.47;;;1.08;;
28605;SDS011;46498;49.968;7.754;2022-09-13T14:51:47;1.20;;;1.10;;
28605;SDS011;46498;49.968;7.754;2022-09-13T14:56:59;1.62;;;1.10;;
28605;SDS011;46498;49.968;7.754;2022-09-13T15:02:06;4.37;;;1.12;;
28605;SDS011;46498;49.968;7.754;2022-09-13T15:07:20;2.35;;;1.20;;
28605;SDS011;46498;49.968;7.754;2022-09-13T15:12:27;2.90;;;1.02;;
28605;SDS011;46498;49.968;7.754;2022-09-13T15:17:27;3.58;;;1.00;;
28605;SDS011;46498;49.968;7.754;2022-09-13T15:22:29;1.52;;;1.00;;
28605;SDS011;46498;49.968;7.754;2022-09-13T15:27:42;2.08;;;1.08;;
28605;SDS011;46498;49.968;7.754;2022-09-13T15:32:45;2.62;;;0.95;;
28605;SDS011;46498;49.968;7.754;2022-09-13T15:37:46;2.80;;;1.50;;
28605;SDS011;46498;49.968;7.754;2022-09-13T15:42:58;6.72;;;1.55;;
28605;SDS011;46498;49.968;7.754;2022-09-13T15:48:00;2.92;;;1.60;;
28605;SDS011;46498;49.968;7.754;2022-09-13T15:53:01;4.15;;;2.12;;
28605;SDS011;46498;49.968;7.754;2022-09-13T15:58:05;1.73;;;1.27;;
28605;SDS011;46498;49.968;7.754;2022-09-13T16:03:07;2.95;;;1.48;;
28605;SDS011;46498;49.968;7.754;2022-09-13T16:08:10;2.67;;;1.42;;
28605;SDS011;46498;49.968;7.754;2022-09-13T16:13:11;6.40;;;1.70;;
28605;SDS011;46498;49.968;7.754;2022-09-13T16:18:12;3.75;;;1.60;;
28605;SDS011;46498;49.968;7.754;2022-09-13T16:23:16;3.58;;;1.50;;
28605;SDS011;46498;49.968;7.754;2022-09-13T16:28:17;3.58;;;2.35;;
28605;SDS011;46498;49.968;7.754;2022-09-13T16:33:21;3.70;;;1.70;;
28605;SDS011;46498;49.968;7.754;2022-09-13T16:38:22;2.87;;;1.65;;
28605;SDS011;46498;49.968;7.754;2022-09-13T16:43:23;2.42;;;1.80;;
28605;SDS011;46498;49.968;7.754;2022-09-13T16:48:24;5.15;;;2.10;;
28605;SDS011;46498;49.968;7.754;2022-09-13T16:53:25;7.37;;;2.00;;
28605;SDS011;46498;49.968;7.754;2022-09-13T16:58:26;2.95;;;1.87;;
28605;SDS011;46498;49.968;7.754;2022-09-13T17:03:26;5.12;;;2.50;;
28605;SDS011;46498;49.968;7.754;2022-09-13T17:08:27;4.95;;;2.12;;
28605;SDS011;46498;49.968;7.754;2022-09-13T17:13:29;1.85;;;1.42;;
28605;SDS011;46498;49.968;7.754;2022-09-13T17:18:29;4.20;;;1.75;;
28605;SDS011;46498;49.968;7.754;2022-09-13T17:23:31;2.53;;;1.30;;
28605;SDS011;46498;49.968;7.754;2022-09-13T17:28:32;6.05;;;1.23;;
28605;SDS011;46498;49.968;7.754;2022-09-13T17:38:36;1.75;;;1.30;;
28605;SDS011;46498;49.968;7.754;2022-09-13T17:43:38;4.57;;;1.17;;
28605;SDS011;46498;49.968;7.754;2022-09-13T17:48:40;2.33;;;1.20;;
28605;SDS011;46498;49.968;7.754;2022-09-13T17:53:42;2.78;;;1.40;;
28605;SDS011;46498;49.968;7.754;2022-09-13T17:58:45;2.03;;;1.02;;
28605;SDS011;46498;49.968;7.754;2022-09-13T18:03:46;3.37;;;1.35;;
28605;SDS011;46498;49.968;7.754;2022-09-13T18:08:50;5.15;;;1.00;;
28605;SDS011;46498;49.968;7.754;2022-09-13T18:13:52;2.78;;;1.60;;
28605;SDS011;46498;49.968;7.754;2022-09-13T18:18:53;5.15;;;1.65;;
28605;SDS011;46498;49.968;7.754;2022-09-13T18:23:56;3.15;;;1.30;;
28605;SDS011;46498;49.968;7.754;2022-09-13T18:28:59;3.25;;;1.40;;
28605;SDS011;46498;49.968;7.754;2022-09-13T18:34:04;3.67;;;1.83;;
28605;SDS011;46498;49.968;7.754;2022-09-13T18:39:10;3.08;;;1.52;;
28605;SDS011;46498;49.968;7.754;2022-09-13T18:44:15;3.28;;;1.48;;
28605;SDS011;46498;49.968;7.754;2022-09-13T18:49:17;2.67;;;1.70;;
28605;SDS011;46498;49.968;7.754;2022-09-13T18:54:19;5.97;;;1.45;;
28605;SDS011;46498;49.968;7.754;2022-09-13T18:59:20;3.95;;;1.40;;
28605;SDS011;46498;49.968;7.754;2022-09-13T19:04:21;6.82;;;1.83;;
28605;SDS011;46498;49.968;7.754;2022-09-13T19:09:21;5.65;;;1.48;;
28605;SDS011;46498;49.968;7.754;2022-09-13T19:14:24;3.72;;;1.48;;
28605;SDS011;46498;49.968;7.754;2022-09-13T19:19:27;4.57;;;1.95;;
28605;SDS011;46498;49.968;7.754;2022-09-13T19:24:30;3.87;;;2.08;;
28605;SDS011;46498;49.968;7.754;2022-09-13T19:29:31;9.07;;;1.70;;
28605;SDS011;46498;49.968;7.754;2022-09-13T19:34:32;2.17;;;1.50;;
28605;SDS011;46498;49.968;7.754;2022-09-13T19:39:33;3.30;;;1.60;;
28605;SDS011;46498;49.968;7.754;2022-09-13T19:44:33;4.80;;;1.67;;
28605;SDS011;46498;49.968;7.754;2022-09-13T19:49:34;3.17;;;1.45;;
28605;SDS011;46498;49.968;7.754;2022-09-13T19:54:35;7.87;;;1.70;;
28605;SDS011;46498;49.968;7.754;2022-09-13T19:59:36;4.93;;;1.40;;
28605;SDS011;46498;49.968;7.754;2022-09-13T20:04:37;6.93;;;1.48;;
28605;SDS011;46498;49.968;7.754;2022-09-13T20:09:38;5.70;;;1.50;;
28605;SDS011;46498;49.968;7.754;2022-09-13T20:14:40;3.22;;;1.30;;
28605;SDS011;46498;49.968;7.754;2022-09-13T20:19:41;6.65;;;1.87;;
28605;SDS011;46498;49.968;7.754;2022-09-13T20:24:50;8.70;;;1.70;;
28605;SDS011;46498;49.968;7.754;2022-09-13T20:29:51;6.20;;;1.60;;
28605;SDS011;46498;49.968;7.754;2022-09-13T20:34:51;4.35;;;2.03;;
28605;SDS011;46498;49.968;7.754;2022-09-13T20:39:52;3.40;;;1.98;;
28605;SDS011;46498;49.968;7.754;2022-09-13T20:44:53;7.40;;;2.42;;
28605;SDS011;46498;49.968;7.754;2022-09-13T20:49:54;7.03;;;2.60;;
28605;SDS011;46498;49.968;7.754;2022-09-13T20:54:55;6.53;;;2.35;;
28605;SDS011;46498;49.968;7.754;2022-09-13T20:59:56;8.65;;;2.92;;
28605;SDS011;46498;49.968;7.754;2022-09-13T21:04:57;6.75;;;2.87;;
28605;SDS011;46498;49.968;7.754;2022-09-13T21:09:59;13.73;;;3.95;;
28605;SDS011;46498;49.968;7.754;2022-09-13T21:15:00;12.40;;;3.20;;
28605;SDS011;46498;49.968;7.754;2022-09-13T21:20:01;6.10;;;1.92;;
28605;SDS011;46498;49.968;7.754;2022-09-13T21:25:02;13.25;;;3.40;;
28605;SDS011;46498;49.968;7.754;2022-09-13T21:30:04;8.48;;;2.17;;
28605;SDS011;46498;49.968;7.754;2022-09-13T21:35:08;4.15;;;2.00;;
28605;SDS011;46498;49.968;7.754;2022-09-13T21:40:09;11.70;;;2.87;;
28605;SDS011;46498;49.968;7.754;2022-09-13T21:45:10;6.47;;;2.53;;
28605;SDS011;46498;49.968;7.754;2022-09-13T21:50:11;6.65;;;2.40;;
28605;SDS011;46498;49.968;7.754;2022-09-13T21:55:12;8.73;;;2.12;;
28605;SDS011;46498;49.968;7.754;2022-09-13T22:00:13;8.52;;;2.55;;
28605;SDS011;46498;49.968;7.754;2022-09-13T22:05:14;5.97;;;2.25;;
28605;SDS011;46498;49.968;7.754;2022-09-13T22:10:15;6.75;;;2.40;;
28605;SDS011;46498;49.968;7.754;2022-09-13T22:15:16;8.68;;;2.53;;
28605;SDS011;46498;49.968;7.754;2022-09-13T22:20:17;5.60;;;1.80;;
28605;SDS011;46498;49.968;7.754;2022-09-13T22:25:19;10.00;;;2.35;;
28605;SDS011;46498;49.968;7.754;2022-09-13T22:30:19;5.85;;;2.12;;
28605;SDS011;46498;49.968;7.754;2022-09-13T22:35:20;8.10;;;2.50;;
28605;SDS011;46498;49.968;7.754;2022-09-13T22:40:21;5.65;;;2.40;;
28605;SDS011;46498;49.968;7.754;2022-09-13T22:45:22;6.15;;;2.20;;
28605;SDS011;46498;49.968;7.754;2022-09-13T22:50:23;8.55;;;2.15;;
28605;SDS011;46498;49.968;7.754;2022-09-13T22:55:24;6.93;;;2.00;;
28605;SDS011;46498;49.968;7.754;2022-09-13T23:00:25;6.97;;;1.62;;
28605;SDS011;46498;49.968;7.754;2022-09-13T23:05:25;7.72;;;2.10;;
28605;SDS011;46498;49.968;7.754;2022-09-13T23:10:26;8.60;;;2.17;;
28605;SDS011;46498;49.968;7.754;2022-09-13T23:15:27;6.05;;;2.10;;
28605;SDS011;46498;49.968;7.754;2022-09-13T23:20:28;5.00;;;2.40;;
28605;SDS011;46498;49.968;7.754;2022-09-13T23:25:29;9.00;;;3.37;;
28605;SDS011;46498;49.968;7.754;2022-09-13T23:35:33;6.22;;;2.85;;
28605;SDS011;46498;49.968;7.754;2022-09-13T23:40:36;10.02;;;2.80;;
28605;SDS011;46498;49.968;7.754;2022-09-13T23:45:37;6.57;;;2.25;;
28605;SDS011;46498;49.968;7.754;2022-09-13T23:50:38;7.80;;;2.50;;
28605;SDS011;46498;49.968;7.754;2022-09-13T23:55:38;10.77;;;2.58;;
